createdAt,value
2023-02-22T00:00:00.524Z,0
2023-02-22T00:05:00.574Z,0
2023-02-22T00:10:00.110Z,0
2023-02-22T00:15:00.405Z,0
2023-02-22T00:20:00.176Z,0
2023-02-22T00:25:00.157Z,0
2023-02-22T00:30:00.063Z,0
2023-02-22T00:35:00.067Z,0
2023-02-22T00:40:00.000Z,0
2023-02-22T00:45:00.064Z,0
2023-02-22T00:50:00.410Z,0
2023-02-22T00:55:00.338Z,0
2023-02-22T01:00:00.246Z,0
2023-02-22T01:05:00.159Z,0
2023-02-22T01:10:00.192Z,0
2023-02-22T01:15:00.195Z,0
2023-02-22T01:20:00.135Z,0
2023-02-22T01:25:00.404Z,0
2023-02-22T01:30:00.818Z,0
2023-02-22T01:35:00.184Z,0
2023-02-22T01:40:00.524Z,0
2023-02-22T01:44:59.975Z,0
2023-02-22T01:50:00.879Z,0
2023-02-22T01:54:59.994Z,0
2023-02-22T02:00:00.440Z,0
2023-02-22T02:05:00.441Z,0
2023-02-22T02:09:59.957Z,0
2023-02-22T02:15:16.045Z,0
2023-02-22T02:20:00.015Z,0
2023-02-22T02:25:11.841Z,0
2023-02-22T02:30:00.291Z,0
2023-02-22T02:35:00.327Z,0
2023-02-22T02:40:00.133Z,0
2023-02-22T02:44:59.927Z,0
2023-02-22T02:50:02.089Z,0
2023-02-22T02:54:59.890Z,0
2023-02-22T03:00:00.157Z,0
2023-02-22T03:05:00.021Z,0
2023-02-22T03:10:00.113Z,0
2023-02-22T03:15:00.120Z,0
2023-02-22T03:19:59.977Z,0
2023-02-22T03:24:59.830Z,0
2023-02-22T03:30:00.048Z,0
2023-02-22T03:35:02.094Z,0
2023-02-22T03:40:00.103Z,0
2023-02-22T03:45:00.118Z,0
2023-02-22T03:50:01.880Z,0
2023-02-22T03:55:00.007Z,0
2023-02-22T04:00:00.052Z,0
2023-02-22T04:05:00.382Z,0
2023-02-22T04:09:59.797Z,0
2023-02-22T04:14:59.963Z,0
2023-02-22T04:20:00.150Z,0
2023-02-22T04:24:59.949Z,0
2023-02-22T04:30:00.001Z,0
2023-02-22T04:34:59.937Z,0
2023-02-22T04:40:00.042Z,0
2023-02-22T04:45:00.099Z,0
2023-02-22T04:50:00.114Z,0
2023-02-22T04:54:59.899Z,0
2023-02-22T04:59:59.975Z,0
2023-02-22T05:04:59.881Z,0
2023-02-22T05:09:59.851Z,0
2023-02-22T05:15:00.105Z,0
2023-02-22T05:19:59.858Z,0
2023-02-22T05:24:59.884Z,0
2023-02-22T05:30:00.121Z,0
2023-02-22T05:34:59.852Z,0
2023-02-22T05:40:00.017Z,0
2023-02-22T05:45:00.095Z,0
2023-02-22T05:49:59.997Z,0
2023-02-22T05:54:59.694Z,0
2023-02-22T05:59:59.749Z,0
2023-02-22T06:05:00.110Z,0
2023-02-22T06:09:59.999Z,0
2023-02-22T06:14:59.727Z,0
2023-02-22T06:20:00.172Z,0
2023-02-22T06:25:01.267Z,0
2023-02-22T06:30:01.817Z,0
2023-02-22T06:34:59.988Z,0
2023-02-22T06:40:04.820Z,0
2023-02-22T06:44:59.737Z,0
2023-02-22T06:49:59.780Z,0.4
2023-02-22T06:55:00.116Z,0.8
2023-02-22T06:59:59.831Z,1.7
2023-02-22T07:04:59.660Z,2.9
2023-02-22T07:09:59.979Z,4.4
2023-02-22T07:14:59.886Z,5.7
2023-02-22T07:20:00.016Z,6.8
2023-02-22T07:24:59.892Z,8.1
2023-02-22T07:29:59.763Z,9.7
2023-02-22T07:34:59.836Z,10.7
2023-02-22T07:39:59.685Z,11.7
2023-02-22T07:45:00.130Z,12.8
2023-02-22T07:49:59.965Z,14
2023-02-22T07:54:59.805Z,15.9
2023-02-22T07:59:59.749Z,19.3
2023-02-22T08:04:59.803Z,20.4
2023-02-22T08:09:59.948Z,21.8
2023-02-22T08:14:59.986Z,28.6
2023-02-22T08:19:59.705Z,34.3
2023-02-22T08:24:59.664Z,36.1
2023-02-22T08:29:59.884Z,39.3
2023-02-22T08:34:59.782Z,44.6
2023-02-22T08:40:00.008Z,47.6
2023-02-22T08:45:00.148Z,46.4
2023-02-22T08:49:59.632Z,46.9
2023-02-22T08:54:59.550Z,54.9
2023-02-22T08:59:59.784Z,58.6
2023-02-22T09:04:59.755Z,59.1
2023-02-22T09:09:59.792Z,64.5
2023-02-22T09:14:59.959Z,71
2023-02-22T09:19:59.557Z,78.2
2023-02-22T09:25:02.596Z,80.2
2023-02-22T09:29:59.620Z,82.9
2023-02-22T09:34:59.533Z,85.9
2023-02-22T09:39:59.808Z,93.1
2023-02-22T09:44:59.823Z,96.5
2023-02-22T09:49:59.621Z,101.9
2023-02-22T09:54:59.565Z,108.1
2023-02-22T09:59:59.763Z,110.6
2023-02-22T10:04:59.885Z,106.4
2023-02-22T10:09:59.517Z,100
2023-02-22T10:14:59.555Z,101.1
2023-02-22T10:19:59.511Z,103.2
2023-02-22T10:24:59.616Z,99.2
2023-02-22T10:30:12.737Z,95.5
2023-02-22T10:35:00.445Z,89.2
2023-02-22T10:39:59.811Z,85.7
2023-02-22T10:45:00.029Z,90.9
2023-02-22T10:49:59.460Z,102.9
2023-02-22T10:55:14.112Z,109.4
2023-02-22T10:59:59.558Z,113
2023-02-22T11:04:59.620Z,121.3
2023-02-22T11:10:00.860Z,135.2
2023-02-22T11:15:18.386Z,127.9
2023-02-22T11:20:00.265Z,121.4
2023-02-22T11:25:00.816Z,121.2
2023-02-22T11:29:59.546Z,122.5
2023-02-22T11:35:16.318Z,117.6
2023-02-22T11:40:04.792Z,109.5
2023-02-22T11:45:07.972Z,107
2023-02-22T11:49:59.382Z,116.3
2023-02-22T11:55:06.866Z,118.4
2023-02-22T11:59:59.671Z,112.8
2023-02-22T12:05:21.334Z,115.3
2023-02-22T12:09:59.508Z,118.5
2023-02-22T12:14:59.432Z,121.8
2023-02-22T12:19:59.420Z,126
2023-02-22T12:25:09.121Z,127.6
2023-02-22T12:30:02.205Z,120.1
2023-02-22T12:35:02.014Z,113.4
2023-02-22T12:39:59.695Z,127.3
2023-02-22T12:44:59.384Z,144.8
2023-02-22T12:49:59.719Z,138.7
2023-02-22T12:55:02.820Z,112.7
2023-02-22T12:59:59.616Z,97.6
2023-02-22T13:04:59.666Z,88.2
2023-02-22T13:10:17.055Z,83.6
2023-02-22T13:14:59.388Z,86
2023-02-22T13:20:02.524Z,92.9
2023-02-22T13:25:02.538Z,101.5
2023-02-22T13:29:59.455Z,110.1
2023-02-22T13:34:59.679Z,111.6
2023-02-22T13:40:16.376Z,106.3
2023-02-22T13:45:11.835Z,96.9
2023-02-22T13:50:09.014Z,88
2023-02-22T13:54:59.614Z,79.7
2023-02-22T13:59:59.546Z,70.2
2023-02-22T14:04:59.365Z,65.3
2023-02-22T14:09:59.611Z,59.7
2023-02-22T14:14:59.468Z,55.4
2023-02-22T14:20:00.525Z,56.6
2023-02-22T14:24:59.439Z,56.2
2023-02-22T14:29:59.465Z,52.9
2023-02-22T14:34:59.482Z,50.2
2023-02-22T14:39:59.244Z,50.9
2023-02-22T14:44:59.394Z,54.6
2023-02-22T14:49:59.276Z,53.4
2023-02-22T14:55:03.382Z,47.5
2023-02-22T15:00:02.264Z,46.3
2023-02-22T15:04:59.599Z,50.2
2023-02-22T15:09:59.509Z,52.6
2023-02-22T15:14:59.374Z,49.6
2023-02-22T15:19:59.705Z,47.7
2023-02-22T15:24:59.460Z,46
2023-02-22T15:30:02.050Z,43.5
2023-02-22T15:34:59.307Z,41.7
2023-02-22T15:40:05.513Z,40.5
2023-02-22T15:44:59.431Z,38.2
2023-02-22T15:50:16.981Z,34.2
2023-02-22T15:54:59.458Z,29.3
2023-02-22T15:59:59.488Z,26.8
2023-02-22T16:04:59.833Z,23.2
2023-02-22T16:09:59.314Z,19.8
2023-02-22T16:14:59.397Z,21.7
2023-02-22T16:19:59.377Z,20.6
2023-02-22T16:24:59.356Z,18.9
2023-02-22T16:30:01.012Z,15.9
2023-02-22T16:34:59.551Z,10.1
2023-02-22T16:39:59.380Z,6.7
2023-02-22T16:44:59.706Z,4.8
2023-02-22T16:49:59.330Z,3.3
2023-02-22T16:54:59.241Z,1.8
2023-02-22T16:59:59.406Z,1.1
2023-02-22T17:04:59.346Z,0.4
2023-02-22T17:09:59.157Z,0.1
2023-02-22T17:14:59.196Z,0
2023-02-22T17:19:59.450Z,0
2023-02-22T17:24:59.960Z,0
2023-02-22T17:29:59.439Z,0
2023-02-22T17:34:59.304Z,0
2023-02-22T17:39:59.452Z,0
2023-02-22T17:44:59.366Z,0
2023-02-22T17:49:59.257Z,0
2023-02-22T17:54:59.175Z,0
2023-02-22T17:59:59.234Z,0
2023-02-22T18:04:59.133Z,0
2023-02-22T18:09:59.199Z,0
2023-02-22T18:14:59.025Z,0
2023-02-22T18:19:59.369Z,0
2023-02-22T18:25:01.675Z,0
2023-02-22T18:29:59.230Z,0
2023-02-22T18:34:59.267Z,0
2023-02-22T18:39:59.358Z,0
2023-02-22T18:44:59.516Z,0
2023-02-22T18:49:59.320Z,0
2023-02-22T18:54:59.193Z,0
2023-02-22T19:00:00.436Z,0
2023-02-22T19:05:00.795Z,0
2023-02-22T19:10:00.707Z,0
2023-02-22T19:15:00.420Z,0
2023-02-22T19:20:00.401Z,0
2023-02-22T19:25:00.559Z,0
2023-02-22T19:30:00.521Z,0
2023-02-22T19:35:00.322Z,0
2023-02-22T19:40:01.362Z,0
2023-02-22T19:45:00.384Z,0
2023-02-22T19:50:00.544Z,0
2023-02-22T19:55:00.595Z,0
2023-02-22T20:00:00.595Z,0
2023-02-22T20:05:00.541Z,0
2023-02-22T20:10:00.676Z,0
2023-02-22T20:15:00.383Z,0
2023-02-22T20:20:00.338Z,0
2023-02-22T20:25:00.387Z,0
2023-02-22T20:30:00.398Z,0
2023-02-22T20:35:00.580Z,0
2023-02-22T20:40:00.485Z,0
2023-02-22T20:45:00.503Z,0
2023-02-22T20:50:00.286Z,0
2023-02-22T20:55:00.574Z,0
2023-02-22T21:00:00.609Z,0
2023-02-22T21:05:00.692Z,0
2023-02-22T21:10:00.301Z,0
2023-02-22T21:15:00.427Z,0
2023-02-22T21:20:00.445Z,0
2023-02-22T21:25:00.418Z,0
2023-02-22T21:30:00.206Z,0
2023-02-22T21:35:00.515Z,0
2023-02-22T21:40:00.612Z,0
2023-02-22T21:45:00.472Z,0
2023-02-22T21:50:00.314Z,0
2023-02-22T21:55:00.315Z,0
2023-02-22T22:00:00.622Z,0
2023-02-22T22:05:00.534Z,0
2023-02-22T22:10:00.375Z,0
2023-02-22T22:15:00.358Z,0
2023-02-22T22:20:00.548Z,0
2023-02-22T22:25:00.452Z,0
2023-02-22T22:30:00.276Z,0
2023-02-22T22:35:00.594Z,0
2023-02-22T22:40:00.196Z,0
2023-02-22T22:45:00.414Z,0
2023-02-22T22:50:00.371Z,0
2023-02-22T22:55:00.293Z,0
2023-02-22T23:00:00.566Z,0
2023-02-22T23:05:00.443Z,0
2023-02-22T23:10:00.251Z,0
2023-02-22T23:15:00.463Z,0
2023-02-22T23:20:00.377Z,0
2023-02-22T23:25:00.383Z,0
2023-02-22T23:30:00.658Z,0
2023-02-22T23:35:00.331Z,0
2023-02-22T23:40:00.303Z,0
2023-02-22T23:45:00.369Z,0
2023-02-22T23:50:00.372Z,0
2023-02-22T23:55:00.205Z,0
